sensor_id;sensor_type;location;lat;lon;timestamp;pressure;altitude;pressure_sealevel;temperature;humidity
77062;BME280;65989;51.686;5.138;2023-04-10T00:02:25;102190.81;;;8.01;69.32
77062;BME280;65989;51.686;5.138;2023-04-10T00:04:50;102197.28;;;7.99;69.57
77062;BME280;65989;51.686;5.138;2023-04-10T00:07:15;102173.75;;;7.97;69.46
77062;BME280;65989;51.686;5.138;2023-04-10T00:09:41;102178.81;;;7.99;69.63
77062;BME280;65989;51.686;5.138;2023-04-10T00:12:06;102167.63;;;7.97;69.73
77062;BME280;65989;51.686;5.138;2023-04-10T00:14:32;102163.81;;;7.99;69.72
77062;BME280;65989;51.686;5.138;2023-04-10T00:16:57;102167.63;;;7.97;69.43
77062;BME280;65989;51.686;5.138;2023-04-10T00:19:22;102161.78;;;7.95;69.72
77062;BME280;65989;51.686;5.138;2023-04-10T00:21:48;102154.44;;;7.90;69.75
77062;BME280;65989;51.686;5.138;2023-04-10T00:24:13;102158.09;;;7.89;70.00
77062;BME280;65989;51.686;5.138;2023-04-10T00:26:39;102154.06;;;7.86;70.09
77062;BME280;65989;51.686;5.138;2023-04-10T00:29:04;102153.03;;;7.87;69.95
77062;BME280;65989;51.686;5.138;2023-04-10T00:31:30;102151.00;;;7.83;70.34
77062;BME280;65989;51.686;5.138;2023-04-10T00:33:56;102144.09;;;7.82;70.21
77062;BME280;65989;51.686;5.138;2023-04-10T00:36:22;102144.50;;;7.78;70.46
77062;BME280;65989;51.686;5.138;2023-04-10T00:38:47;102140.84;;;7.80;70.77
77062;BME280;65989;51.686;5.138;2023-04-10T00:41:14;102134.16;;;7.77;70.63
77062;BME280;65989;51.686;5.138;2023-04-10T00:43:40;102133.13;;;7.78;70.76
77062;BME280;65989;51.686;5.138;2023-04-10T00:46:05;102139.22;;;7.78;70.83
77062;BME280;65989;51.686;5.138;2023-04-10T00:48:33;102134.97;;;7.77;70.39
77062;BME280;65989;51.686;5.138;2023-04-10T00:50:59;102135.56;;;7.80;70.67
77062;BME280;65989;51.686;5.138;2023-04-10T00:53:25;102136.38;;;7.80;70.58
77062;BME280;65989;51.686;5.138;2023-04-10T00:55:51;102141.25;;;7.83;70.55
77062;BME280;65989;51.686;5.138;2023-04-10T00:58:17;102137.00;;;7.82;70.36
77062;BME280;65989;51.686;5.138;2023-04-10T01:00:42;102141.88;;;7.85;70.28
77062;BME280;65989;51.686;5.138;2023-04-10T01:03:08;102128.69;;;7.85;70.46
77062;BME280;65989;51.686;5.138;2023-04-10T01:05:48;102126.84;;;7.86;70.18
77062;BME280;65989;51.686;5.138;2023-04-10T01:11:14;102124.81;;;7.88;70.27
77062;BME280;65989;51.686;5.138;2023-04-10T01:13:54;102126.44;;;7.89;70.37
77062;BME280;65989;51.686;5.138;2023-04-10T01:16:30;102130.69;;;7.90;70.32
77062;BME280;65989;51.686;5.138;2023-04-10T01:19:06;102126.84;;;7.92;70.14
77062;BME280;65989;51.686;5.138;2023-04-10T01:21:37;102128.06;;;7.90;70.34
77062;BME280;65989;51.686;5.138;2023-04-10T01:27:33;102113.66;;;7.86;70.23
77062;BME280;65989;51.686;5.138;2023-04-10T01:30:01;102107.56;;;7.85;70.28
77062;BME280;65989;51.686;5.138;2023-04-10T01:32:28;102110.59;;;7.82;70.24
77062;BME280;65989;51.686;5.138;2023-04-10T01:34:58;102104.91;;;7.78;70.43
77062;BME280;65989;51.686;5.138;2023-04-10T01:37:30;102108.78;;;7.76;70.46
77062;BME280;65989;51.686;5.138;2023-04-10T01:40:08;102099.44;;;7.73;70.52
77062;BME280;65989;51.686;5.138;2023-04-10T01:42:43;102095.19;;;7.72;70.47
77062;BME280;65989;51.686;5.138;2023-04-10T01:45:17;102086.22;;;7.67;70.63
77062;BME280;65989;51.686;5.138;2023-04-10T01:47:43;102088.69;;;7.68;70.81
77062;BME280;65989;51.686;5.138;2023-04-10T01:50:10;102090.50;;;7.68;70.78
77062;BME280;65989;51.686;5.138;2023-04-10T01:52:36;102082.97;;;7.65;70.69
77062;BME280;65989;51.686;5.138;2023-04-10T01:55:03;102086.63;;;7.63;70.83
77062;BME280;65989;51.686;5.138;2023-04-10T01:57:30;102080.97;;;7.67;70.81
77062;BME280;65989;51.686;5.138;2023-04-10T01:59:56;102080.97;;;7.67;70.53
77062;BME280;65989;51.686;5.138;2023-04-10T02:02:22;102073.25;;;7.65;70.59
77062;BME280;65989;51.686;5.138;2023-04-10T02:04:47;102066.34;;;7.64;70.84
77062;BME280;65989;51.686;5.138;2023-04-10T02:07:19;102066.53;;;7.62;70.89
77062;BME280;65989;51.686;5.138;2023-04-10T02:10:11;102073.44;;;7.63;70.79
77062;BME280;65989;51.686;5.138;2023-04-10T02:13:03;102067.59;;;7.61;70.80
77062;BME280;65989;51.686;5.138;2023-04-10T02:15:30;102072.03;;;7.61;70.71
77062;BME280;65989;51.686;5.138;2023-04-10T02:17:58;102071.44;;;7.59;70.69
77062;BME280;65989;51.686;5.138;2023-04-10T02:20:24;102061.69;;;7.53;70.86
77062;BME280;65989;51.686;5.138;2023-04-10T02:22:51;102070.19;;;7.55;70.68
77062;BME280;65989;51.686;5.138;2023-04-10T02:25:17;102067.56;;;7.55;70.82
77062;BME280;65989;51.686;5.138;2023-04-10T02:27:42;102067.56;;;7.55;70.63
77062;BME280;65989;51.686;5.138;2023-04-10T02:30:09;102062.50;;;7.53;70.75
77062;BME280;65989;51.686;5.138;2023-04-10T02:32:35;102060.88;;;7.52;70.79
77062;BME280;65989;51.686;5.138;2023-04-10T02:35:01;102065.13;;;7.53;70.52
77062;BME280;65989;51.686;5.138;2023-04-10T02:37:27;102070.41;;;7.53;70.81
77062;BME280;65989;51.686;5.138;2023-04-10T02:39:53;102066.34;;;7.51;70.74
77062;BME280;65989;51.686;5.138;2023-04-10T02:42:21;102058.81;;;7.47;70.53
77062;BME280;65989;51.686;5.138;2023-04-10T02:44:47;102072.63;;;7.50;70.72
77062;BME280;65989;51.686;5.138;2023-04-10T02:47:12;102067.56;;;7.48;70.66
77062;BME280;65989;51.686;5.138;2023-04-10T02:49:38;102070.59;;;7.45;70.58
77062;BME280;65989;51.686;5.138;2023-04-10T02:52:03;102067.16;;;7.44;70.50
77062;BME280;65989;51.686;5.138;2023-04-10T02:54:29;102068.38;;;7.42;70.86
77062;BME280;65989;51.686;5.138;2023-04-10T02:56:55;102067.97;;;7.38;70.82
77062;BME280;65989;51.686;5.138;2023-04-10T02:59:21;102062.88;;;7.37;70.64
77062;BME280;65989;51.686;5.138;2023-04-10T03:01:47;102062.66;;;7.31;70.68
77062;BME280;65989;51.686;5.138;2023-04-10T03:04:13;102066.94;;;7.32;70.79
77062;BME280;65989;51.686;5.138;2023-04-10T03:06:38;102064.91;;;7.28;70.81
77062;BME280;65989;51.686;5.138;2023-04-10T03:09:04;102066.75;;;7.27;70.83
77062;BME280;65989;51.686;5.138;2023-04-10T03:11:30;102071.78;;;7.22;71.09
77062;BME280;65989;51.686;5.138;2023-04-10T03:13:56;102071.19;;;7.20;71.08
77062;BME280;65989;51.686;5.138;2023-04-10T03:16:24;102071.56;;;7.17;71.26
77062;BME280;65989;51.686;5.138;2023-04-10T03:18:52;102075.41;;;7.14;71.24
77062;BME280;65989;51.686;5.138;2023-04-10T03:21:17;102076.63;;;7.12;71.18
77062;BME280;65989;51.686;5.138;2023-04-10T03:23:43;102069.34;;;7.07;71.17
77062;BME280;65989;51.686;5.138;2023-04-10T03:26:08;102061.59;;;7.06;71.63
77062;BME280;65989;51.686;5.138;2023-04-10T03:28:33;102055.72;;;7.03;71.45
77062;BME280;65989;51.686;5.138;2023-04-10T03:31:01;102053.28;;;7.02;71.79
77062;BME280;65989;51.686;5.138;2023-04-10T03:33:26;102055.50;;;6.98;71.40
77062;BME280;65989;51.686;5.138;2023-04-10T03:35:52;102054.69;;;6.98;71.79
77062;BME280;65989;51.686;5.138;2023-04-10T03:38:18;102047.19;;;6.95;71.78
77062;BME280;65989;51.686;5.138;2023-04-10T03:40:43;102043.31;;;6.91;71.96
77062;BME280;65989;51.686;5.138;2023-04-10T03:43:08;102048.59;;;6.91;71.73
77062;BME280;65989;51.686;5.138;2023-04-10T03:45:34;102042.53;;;6.90;71.85
77062;BME280;65989;51.686;5.138;2023-04-10T03:47:59;102042.91;;;6.87;71.71
77062;BME280;65989;51.686;5.138;2023-04-10T03:50:24;102035.81;;;6.81;72.14
77062;BME280;65989;51.686;5.138;2023-04-10T03:52:50;102040.25;;;6.80;72.28
77062;BME280;65989;51.686;5.138;2023-04-10T03:55:16;102030.31;;;6.76;72.06
77062;BME280;65989;51.686;5.138;2023-04-10T03:57:48;102033.16;;;6.74;72.35
77062;BME280;65989;51.686;5.138;2023-04-10T04:00:14;102019.38;;;6.72;72.09
77062;BME280;65989;51.686;5.138;2023-04-10T04:02:40;102023.19;;;6.69;72.50
77062;BME280;65989;51.686;5.138;2023-04-10T04:05:06;102017.13;;;6.69;72.45
77062;BME280;65989;51.686;5.138;2023-04-10T04:07:31;102010.41;;;6.66;72.48
77062;BME280;65989;51.686;5.138;2023-04-10T04:09:57;102011.84;;;6.69;72.47
77062;BME280;65989;51.686;5.138;2023-04-10T04:12:23;102011.25;;;6.67;72.62
77062;BME280;65989;51.686;5.138;2023-04-10T04:14:48;102007.59;;;6.68;72.72
77062;BME280;65989;51.686;5.138;2023-04-10T04:17:13;102005.75;;;6.68;72.61
77062;BME280;65989;51.686;5.138;2023-04-10T04:19:39;102006.78;;;6.67;72.36
77062;BME280;65989;51.686;5.138;2023-04-10T04:22:04;101998.47;;;6.64;72.27
77062;BME280;65989;51.686;5.138;2023-04-10T04:24:30;102003.13;;;6.68;72.28
77062;BME280;65989;51.686;5.138;2023-04-10T04:26:55;102003.34;;;6.67;72.32
77062;BME280;65989;51.686;5.138;2023-04-10T04:29:21;101998.88;;;6.67;72.25
77062;BME280;65989;51.686;5.138;2023-04-10T04:31:46;102004.75;;;6.69;72.14
77062;BME280;65989;51.686;5.138;2023-04-10T04:34:12;101995.03;;;6.70;72.26
77062;BME280;65989;51.686;5.138;2023-04-10T04:36:37;102002.94;;;6.70;72.21
77062;BME280;65989;51.686;5.138;2023-04-10T04:39:03;101997.84;;;6.68;72.17
77062;BME280;65989;51.686;5.138;2023-04-10T04:41:28;102003.56;;;6.72;72.20
77062;BME280;65989;51.686;5.138;2023-04-10T04:43:57;101989.97;;;6.68;72.00
77062;BME280;65989;51.686;5.138;2023-04-10T04:46:22;101997.69;;;6.70;72.21
77062;BME280;65989;51.686;5.138;2023-04-10T04:48:47;101990.16;;;6.67;72.17
77062;BME280;65989;51.686;5.138;2023-04-10T04:51:13;101997.84;;;6.68;72.20
77062;BME280;65989;51.686;5.138;2023-04-10T04:53:38;101997.84;;;6.68;71.98
77062;BME280;65989;51.686;5.138;2023-04-10T04:56:04;101991.97;;;6.66;71.96
77062;BME280;65989;51.686;5.138;2023-04-10T04:58:29;101993.81;;;6.66;72.34
77062;BME280;65989;51.686;5.138;2023-04-10T05:00:55;101991.34;;;6.64;71.97
77062;BME280;65989;51.686;5.138;2023-04-10T05:03:20;101979.19;;;6.63;71.96
77062;BME280;65989;51.686;5.138;2023-04-10T05:05:46;101969.28;;;6.65;71.92
77062;BME280;65989;51.686;5.138;2023-04-10T05:08:11;101971.72;;;6.67;72.07
77062;BME280;65989;51.686;5.138;2023-04-10T05:10:37;101969.91;;;6.67;72.15
77062;BME280;65989;51.686;5.138;2023-04-10T05:13:02;101973.75;;;6.71;71.82
77062;BME280;65989;51.686;5.138;2023-04-10T05:15:27;101974.38;;;6.73;71.87
77062;BME280;65989;51.686;5.138;2023-04-10T05:17:53;101974.59;;;6.79;71.94
77062;BME280;65989;51.686;5.138;2023-04-10T05:20:18;101967.69;;;6.84;71.72
77062;BME280;65989;51.686;5.138;2023-04-10T05:22:46;101965.91;;;6.92;71.59
77062;BME280;65989;51.686;5.138;2023-04-10T05:25:11;101966.91;;;6.97;71.25
77062;BME280;65989;51.686;5.138;2023-04-10T05:27:37;101961.06;;;7.02;71.18
77062;BME280;65989;51.686;5.138;2023-04-10T05:30:02;101969.97;;;7.08;71.05
77062;BME280;65989;51.686;5.138;2023-04-10T05:32:28;101962.50;;;7.11;71.03
77062;BME280;65989;51.686;5.138;2023-04-10T05:34:53;101971.41;;;7.17;70.67
77062;BME280;65989;51.686;5.138;2023-04-10T05:37:19;101970.00;;;7.21;70.63
77062;BME280;65989;51.686;5.138;2023-04-10T05:39:44;101972.00;;;7.26;70.68
77062;BME280;65989;51.686;5.138;2023-04-10T05:42:10;101978.50;;;7.30;70.69
77062;BME280;65989;51.686;5.138;2023-04-10T05:44:35;101974.47;;;7.34;70.33
77062;BME280;65989;51.686;5.138;2023-04-10T05:47:01;101973.22;;;7.37;70.12
77062;BME280;65989;51.686;5.138;2023-04-10T05:49:26;101970.00;;;7.41;70.05
77062;BME280;65989;51.686;5.138;2023-04-10T05:51:52;101981.34;;;7.48;69.90
77062;BME280;65989;51.686;5.138;2023-04-10T05:54:18;101971.81;;;7.54;69.71
77062;BME280;65989;51.686;5.138;2023-04-10T05:56:46;101973.03;;;7.58;69.93
77062;BME280;65989;51.686;5.138;2023-04-10T05:59:12;101979.69;;;7.68;69.40
77062;BME280;65989;51.686;5.138;2023-04-10T06:01:38;101977.06;;;7.74;69.55
77062;BME280;65989;51.686;5.138;2023-04-10T06:04:03;101979.88;;;7.80;69.20
77062;BME280;65989;51.686;5.138;2023-04-10T06:06:29;101968.31;;;7.81;69.28
77062;BME280;65989;51.686;5.138;2023-04-10T06:08:55;101970.94;;;7.87;68.88
77062;BME280;65989;51.686;5.138;2023-04-10T06:11:21;101967.91;;;7.90;68.81
77062;BME280;65989;51.686;5.138;2023-04-10T06:13:46;101965.66;;;7.94;68.69
77062;BME280;65989;51.686;5.138;2023-04-10T06:16:12;101954.03;;;8.02;68.61
77062;BME280;65989;51.686;5.138;2023-04-10T06:18:39;101951.59;;;8.07;68.38
77062;BME280;65989;51.686;5.138;2023-04-10T06:21:05;101937.59;;;8.00;68.23
77062;BME280;65989;51.686;5.138;2023-04-10T06:23:31;101947.28;;;8.13;68.09
77062;BME280;65989;51.686;5.138;2023-04-10T06:25:56;101937.75;;;8.18;68.36
77062;BME280;65989;51.686;5.138;2023-04-10T06:28:22;101938.72;;;8.24;68.18
77062;BME280;65989;51.686;5.138;2023-04-10T06:30:47;101927.09;;;8.32;67.76
77062;BME280;65989;51.686;5.138;2023-04-10T06:33:13;101928.13;;;8.37;67.48
77062;BME280;65989;51.686;5.138;2023-04-10T06:35:38;101934.59;;;8.42;67.75
77062;BME280;65989;51.686;5.138;2023-04-10T06:38:04;101918.75;;;8.48;67.74
77062;BME280;65989;51.686;5.138;2023-04-10T06:40:29;101917.06;;;8.54;67.36
77062;BME280;65989;51.686;5.138;2023-04-10T06:42:55;101903.44;;;8.57;67.00
77062;BME280;65989;51.686;5.138;2023-04-10T06:45:21;101910.72;;;8.62;66.64
77062;BME280;65989;51.686;5.138;2023-04-10T06:47:46;101907.22;;;8.68;66.68
77062;BME280;65989;51.686;5.138;2023-04-10T06:50:11;101896.03;;;8.73;66.57
77062;BME280;65989;51.686;5.138;2023-04-10T06:52:37;101890.69;;;8.79;66.56
77062;BME280;65989;51.686;5.138;2023-04-10T06:55:02;101886.97;;;8.87;66.10
77062;BME280;65989;51.686;5.138;2023-04-10T06:57:28;101885.75;;;8.90;66.14
77062;BME280;65989;51.686;5.138;2023-04-10T06:59:53;101880.75;;;9.00;65.58
77062;BME280;65989;51.686;5.138;2023-04-10T07:02:19;101873.59;;;9.07;65.49
77062;BME280;65989;51.686;5.138;2023-04-10T07:04:44;101872.50;;;9.15;65.07
77062;BME280;65989;51.686;5.138;2023-04-10T07:07:10;101873.03;;;9.24;64.89
77062;BME280;65989;51.686;5.138;2023-04-10T07:09:38;101869.50;;;9.30;64.49
77062;BME280;65989;51.686;5.138;2023-04-10T07:12:03;101857.84;;;9.38;63.95
77062;BME280;65989;51.686;5.138;2023-04-10T07:14:30;101854.09;;;9.46;64.25
77062;BME280;65989;51.686;5.138;2023-04-10T07:16:56;101847.69;;;9.53;63.75
77062;BME280;65989;51.686;5.138;2023-04-10T07:19:22;101842.47;;;9.65;63.57
77062;BME280;65989;51.686;5.138;2023-04-10T07:21:47;101835.25;;;9.73;63.29
77062;BME280;65989;51.686;5.138;2023-04-10T07:24:15;101847.06;;;9.89;63.00
77062;BME280;65989;51.686;5.138;2023-04-10T07:26:41;101843.81;;;10.05;62.50
77062;BME280;65989;51.686;5.138;2023-04-10T07:29:06;101836.50;;;10.19;61.70
77062;BME280;65989;51.686;5.138;2023-04-10T07:31:33;101838.34;;;10.30;61.27
77062;BME280;65989;51.686;5.138;2023-04-10T07:33:58;101817.78;;;10.44;60.82
77062;BME280;65989;51.686;5.138;2023-04-10T07:36:24;101829.09;;;10.64;60.69
77062;BME280;65989;51.686;5.138;2023-04-10T07:38:51;101815.78;;;10.82;60.20
77062;BME280;65989;51.686;5.138;2023-04-10T07:41:16;101818.53;;;11.11;60.43
77062;BME280;65989;51.686;5.138;2023-04-10T07:43:42;101810.16;;;11.43;59.45
77062;BME280;65989;51.686;5.138;2023-04-10T07:46:07;101808.41;;;11.78;58.44
77062;BME280;65989;51.686;5.138;2023-04-10T07:48:33;101805.56;;;12.08;57.75
77062;BME280;65989;51.686;5.138;2023-04-10T07:50:58;101794.78;;;12.32;56.59
77062;BME280;65989;51.686;5.138;2023-04-10T07:53:23;101792.47;;;12.53;56.40
77062;BME280;65989;51.686;5.138;2023-04-10T07:55:49;101795.59;;;12.67;55.60
77062;BME280;65989;51.686;5.138;2023-04-10T07:58:15;101790.34;;;12.72;54.37
77062;BME280;65989;51.686;5.138;2023-04-10T08:00:40;101787.63;;;12.67;54.46
77062;BME280;65989;51.686;5.138;2023-04-10T08:03:06;101786.88;;;12.54;54.69
77062;BME280;65989;51.686;5.138;2023-04-10T08:05:32;101784.78;;;12.57;55.24
77062;BME280;65989;51.686;5.138;2023-04-10T08:07:58;101785.34;;;12.59;55.08
77062;BME280;65989;51.686;5.138;2023-04-10T08:10:24;101783.09;;;12.50;54.83
77062;BME280;65989;51.686;5.138;2023-04-10T08:12:49;101772.38;;;12.45;54.78
77062;BME280;65989;51.686;5.138;2023-04-10T08:15:16;101773.84;;;12.53;55.11
77062;BME280;65989;51.686;5.138;2023-04-10T08:17:42;101784.94;;;12.67;55.40
77062;BME280;65989;51.686;5.138;2023-04-10T08:20:08;101774.50;;;12.82;55.18
77062;BME280;65989;51.686;5.138;2023-04-10T08:22:33;101779.50;;;12.96;54.91
77062;BME280;65989;51.686;5.138;2023-04-10T08:24:59;101779.38;;;13.08;54.29
77062;BME280;65989;51.686;5.138;2023-04-10T08:27:24;101772.59;;;13.17;53.39
77062;BME280;65989;51.686;5.138;2023-04-10T08:29:50;101765.72;;;13.21;53.51
77062;BME280;65989;51.686;5.138;2023-04-10T08:32:15;101762.72;;;13.18;53.46
77062;BME280;65989;51.686;5.138;2023-04-10T08:34:40;101749.31;;;13.07;53.62
77062;BME280;65989;51.686;5.138;2023-04-10T08:37:07;101749.97;;;12.97;54.06
77062;BME280;65989;51.686;5.138;2023-04-10T08:39:34;101756.47;;;12.84;54.14
77062;BME280;65989;51.686;5.138;2023-04-10T08:42:01;101750.19;;;12.74;54.58
77062;BME280;65989;51.686;5.138;2023-04-10T08:44:26;101756.09;;;12.76;55.06
77062;BME280;65989;51.686;5.138;2023-04-10T08:46:53;101733.38;;;12.68;54.96
77062;BME280;65989;51.686;5.138;2023-04-10T08:52:14;101741.41;;;12.90;54.91
77062;BME280;65989;51.686;5.138;2023-04-10T08:54:45;101743.53;;;12.93;55.28
77062;BME280;65989;51.686;5.138;2023-04-10T08:57:14;101737.72;;;12.96;54.85
77062;BME280;65989;51.686;5.138;2023-04-10T08:59:43;101734.56;;;12.99;55.02
77062;BME280;65989;51.686;5.138;2023-04-10T09:02:09;101724.75;;;13.00;55.05
77062;BME280;65989;51.686;5.138;2023-04-10T09:04:35;101727.72;;;13.04;55.09
77062;BME280;65989;51.686;5.138;2023-04-10T09:07:00;101726.72;;;13.10;55.04
77062;BME280;65989;51.686;5.138;2023-04-10T09:09:26;101725.66;;;13.11;54.67
77062;BME280;65989;51.686;5.138;2023-04-10T09:14:23;101721.34;;;13.05;55.05
77062;BME280;65989;51.686;5.138;2023-04-10T09:16:50;101717.13;;;13.09;54.61
77062;BME280;65989;51.686;5.138;2023-04-10T09:19:29;101716.22;;;13.25;54.87
77062;BME280;65989;51.686;5.138;2023-04-10T09:21:55;101705.97;;;13.34;54.07
77062;BME280;65989;51.686;5.138;2023-04-10T09:24:22;101702.94;;;13.48;54.57
77062;BME280;65989;51.686;5.138;2023-04-10T09:26:50;101699.59;;;13.63;54.47
77062;BME280;65989;51.686;5.138;2023-04-10T09:29:16;101691.50;;;13.80;54.80
77062;BME280;65989;51.686;5.138;2023-04-10T09:31:41;101683.81;;;13.83;53.98
77062;BME280;65989;51.686;5.138;2023-04-10T09:34:18;101680.66;;;13.92;53.99
77062;BME280;65989;51.686;5.138;2023-04-10T09:36:57;101674.34;;;14.03;54.15
77062;BME280;65989;51.686;5.138;2023-04-10T09:39:36;101674.66;;;14.07;53.40
77062;BME280;65989;51.686;5.138;2023-04-10T09:42:05;101666.13;;;14.04;53.41
77062;BME280;65989;51.686;5.138;2023-04-10T09:44:32;101672.28;;;14.10;53.05
77062;BME280;65989;51.686;5.138;2023-04-10T09:47:19;101678.56;;;14.31;53.92
77062;BME280;65989;51.686;5.138;2023-04-10T09:49:51;101675.66;;;14.38;52.99
77062;BME280;65989;51.686;5.138;2023-04-10T09:52:22;101662.13;;;14.55;53.23
77062;BME280;65989;51.686;5.138;2023-04-10T09:54:51;101657.44;;;14.78;51.96
77062;BME280;65989;51.686;5.138;2023-04-10T09:57:18;101656.97;;;14.86;51.60
77062;BME280;65989;51.686;5.138;2023-04-10T09:59:49;101658.31;;;14.89;52.02
77062;BME280;65989;51.686;5.138;2023-04-10T10:02:20;101644.97;;;14.89;52.15
77062;BME280;65989;51.686;5.138;2023-04-10T10:04:47;101643.13;;;15.00;52.19
77062;BME280;65989;51.686;5.138;2023-04-10T10:07:16;101640.19;;;15.06;51.08
77062;BME280;65989;51.686;5.138;2023-04-10T10:09:44;101641.81;;;15.13;51.09
77062;BME280;65989;51.686;5.138;2023-04-10T10:12:15;101631.44;;;15.27;50.98
77062;BME280;65989;51.686;5.138;2023-04-10T10:20:12;101609.25;;;15.67;50.67
77062;BME280;65989;51.686;5.138;2023-04-10T10:22:40;101607.13;;;15.95;50.38
77062;BME280;65989;51.686;5.138;2023-04-10T10:25:06;101610.00;;;16.20;49.45
77062;BME280;65989;51.686;5.138;2023-04-10T10:27:36;101608.94;;;16.16;48.83
77062;BME280;65989;51.686;5.138;2023-04-10T10:30:02;101590.00;;;16.02;47.91
77062;BME280;65989;51.686;5.138;2023-04-10T10:32:28;101594.00;;;16.04;48.25
77062;BME280;65989;51.686;5.138;2023-04-10T10:34:54;101589.47;;;16.05;49.11
77062;BME280;65989;51.686;5.138;2023-04-10T10:37:22;101598.03;;;15.96;48.74
77062;BME280;65989;51.686;5.138;2023-04-10T10:40:03;101581.19;;;15.96;49.63
77062;BME280;65989;51.686;5.138;2023-04-10T10:42:42;101575.56;;;16.08;49.68
77062;BME280;65989;51.686;5.138;2023-04-10T10:45:19;101578.13;;;16.28;49.28
77062;BME280;65989;51.686;5.138;2023-04-10T10:47:50;101568.16;;;16.50;49.18
77062;BME280;65989;51.686;5.138;2023-04-10T10:50:16;101560.84;;;16.66;48.49
77062;BME280;65989;51.686;5.138;2023-04-10T10:52:45;101560.78;;;16.76;48.74
77062;BME280;65989;51.686;5.138;2023-04-10T10:57:47;101559.22;;;16.70;47.95
77062;BME280;65989;51.686;5.138;2023-04-10T11:00:14;101552.97;;;16.85;47.78
77062;BME280;65989;51.686;5.138;2023-04-10T11:02:40;101555.63;;;16.90;47.41
77062;BME280;65989;51.686;5.138;2023-04-10T11:05:05;101529.06;;;16.99;47.61
77062;BME280;65989;51.686;5.138;2023-04-10T11:11:02;101527.44;;;17.38;47.90
77062;BME280;65989;51.686;5.138;2023-04-10T11:13:35;101517.59;;;17.57;47.07
77062;BME280;65989;51.686;5.138;2023-04-10T11:16:02;101510.78;;;17.65;47.36
77062;BME280;65989;51.686;5.138;2023-04-10T11:21:18;101503.38;;;17.81;46.43
77062;BME280;65989;51.686;5.138;2023-04-10T11:26:39;101498.53;;;18.08;46.41
77062;BME280;65989;51.686;5.138;2023-04-10T11:31:39;101492.25;;;18.36;45.84
77062;BME280;65989;51.686;5.138;2023-04-10T11:34:06;101494.06;;;18.41;44.96
77062;BME280;65989;51.686;5.138;2023-04-10T11:36:36;101479.06;;;18.40;45.19
77062;BME280;65989;51.686;5.138;2023-04-10T11:39:03;101477.03;;;18.51;44.91
77062;BME280;65989;51.686;5.138;2023-04-10T11:41:40;101477.97;;;18.41;44.74
77062;BME280;65989;51.686;5.138;2023-04-10T11:44:07;101467.81;;;18.38;44.71
77062;BME280;65989;51.686;5.138;2023-04-10T11:46:36;101472.47;;;18.32;45.27
77062;BME280;65989;51.686;5.138;2023-04-10T11:49:03;101459.84;;;18.33;44.85
77062;BME280;65989;51.686;5.138;2023-04-10T11:51:30;101457.44;;;18.50;45.87
77062;BME280;65989;51.686;5.138;2023-04-10T11:54:24;101452.19;;;18.59;45.28
77062;BME280;65989;51.686;5.138;2023-04-10T11:57:02;101451.97;;;18.75;45.44
77062;BME280;65989;51.686;5.138;2023-04-10T11:59:30;101440.97;;;18.90;44.74
77062;BME280;65989;51.686;5.138;2023-04-10T12:02:10;101439.59;;;18.93;44.71
77062;BME280;65989;51.686;5.138;2023-04-10T12:04:37;101437.63;;;18.99;45.02
77062;BME280;65989;51.686;5.138;2023-04-10T12:07:02;101430.66;;;18.98;45.06
77062;BME280;65989;51.686;5.138;2023-04-10T12:09:28;101435.19;;;18.83;43.97
77062;BME280;65989;51.686;5.138;2023-04-10T12:12:00;101432.91;;;18.57;44.60
77062;BME280;65989;51.686;5.138;2023-04-10T12:14:33;101432.59;;;18.26;44.95
77062;BME280;65989;51.686;5.138;2023-04-10T12:17:03;101425.06;;;18.09;45.81
77062;BME280;65989;51.686;5.138;2023-04-10T12:19:29;101419.59;;;17.95;45.88
77062;BME280;65989;51.686;5.138;2023-04-10T12:21:56;101416.81;;;17.81;46.09
77062;BME280;65989;51.686;5.138;2023-04-10T12:24:50;101405.91;;;17.72;46.44
77062;BME280;65989;51.686;5.138;2023-04-10T12:27:26;101403.22;;;17.53;46.48
77062;BME280;65989;51.686;5.138;2023-04-10T12:29:53;101402.31;;;17.38;46.64
77062;BME280;65989;51.686;5.138;2023-04-10T12:32:20;101397.56;;;17.30;47.64
77062;BME280;65989;51.686;5.138;2023-04-10T12:34:50;101388.91;;;17.14;47.32
77062;BME280;65989;51.686;5.138;2023-04-10T12:37:16;101385.28;;;17.05;47.73
77062;BME280;65989;51.686;5.138;2023-04-10T12:39:41;101388.00;;;16.94;47.31
77062;BME280;65989;51.686;5.138;2023-04-10T12:42:25;101380.31;;;16.87;48.29
77062;BME280;65989;51.686;5.138;2023-04-10T12:44:58;101373.50;;;16.71;48.46
77062;BME280;65989;51.686;5.138;2023-04-10T12:47:26;101356.50;;;16.56;48.44
77062;BME280;65989;51.686;5.138;2023-04-10T12:50:07;101373.69;;;16.50;49.46
77062;BME280;65989;51.686;5.138;2023-04-10T12:52:35;101370.88;;;16.31;48.71
77062;BME280;65989;51.686;5.138;2023-04-10T12:55:17;101367.50;;;16.20;49.20
77062;BME280;65989;51.686;5.138;2023-04-10T12:57:46;101367.25;;;16.11;49.71
77062;BME280;65989;51.686;5.138;2023-04-10T13:00:14;101361.44;;;16.04;49.94
77062;BME280;65989;51.686;5.138;2023-04-10T13:02:40;101352.06;;;16.07;49.62
77062;BME280;65989;51.686;5.138;2023-04-10T13:05:07;101358.72;;;16.09;50.08
77062;BME280;65989;51.686;5.138;2023-04-10T13:07:33;101354.16;;;16.15;50.77
77062;BME280;65989;51.686;5.138;2023-04-10T13:10:00;101347.75;;;16.11;49.89
77062;BME280;65989;51.686;5.138;2023-04-10T13:12:25;101325.94;;;15.93;49.73
77062;BME280;65989;51.686;5.138;2023-04-10T13:14:53;101335.63;;;15.89;50.20
77062;BME280;65989;51.686;5.138;2023-04-10T13:17:23;101332.97;;;15.79;50.72
77062;BME280;65989;51.686;5.138;2023-04-10T13:19:48;101327.88;;;15.77;51.77
77062;BME280;65989;51.686;5.138;2023-04-10T13:22:14;101312.38;;;15.79;52.48
77062;BME280;65989;51.686;5.138;2023-04-10T13:24:41;101310.47;;;15.90;53.24
77062;BME280;65989;51.686;5.138;2023-04-10T13:27:06;101312.25;;;16.05;53.08
77062;BME280;65989;51.686;5.138;2023-04-10T13:29:33;101300.16;;;16.13;52.51